createdAt,value
2023-03-23T15:58:32.201Z,42.61
2023-03-23T16:01:05.877Z,42.32
2023-03-23T16:03:43.041Z,42.52
2023-03-23T16:06:24.110Z,42.57
2023-03-23T16:08:58.880Z,42.79
2023-03-23T16:11:31.329Z,43.00
2023-03-23T16:14:01.495Z,43.69
2023-03-23T16:16:35.665Z,43.39
2023-03-23T16:19:05.536Z,44.30
2023-03-23T16:21:36.690Z,43.63
2023-03-23T16:24:06.058Z,44.22
2023-03-23T16:26:35.870Z,44.51
2023-03-23T16:29:23.900Z,44.32
2023-03-23T16:32:02.727Z,44.43
2023-03-23T16:34:35.676Z,44.66
2023-03-23T16:37:06.999Z,44.77
2023-03-23T16:39:36.763Z,45.57
2023-03-23T16:42:06.245Z,45.27
2023-03-23T16:44:35.460Z,45.85
2023-03-23T16:47:05.355Z,45.32
2023-03-23T16:49:34.382Z,45.56
2023-03-23T16:52:03.450Z,45.54
2023-03-23T16:54:34.515Z,45.80
2023-03-23T16:57:03.821Z,45.58
2023-03-23T16:59:33.644Z,45.74
2023-03-23T17:02:04.078Z,45.96
2023-03-23T17:04:34.277Z,47.87
2023-03-23T17:07:03.323Z,47.41
2023-03-23T17:09:35.938Z,46.71
2023-03-23T17:12:05.742Z,46.44
2023-03-23T17:14:35.479Z,46.63
2023-03-23T17:17:05.041Z,47.10
2023-03-23T17:19:53.752Z,47.28
2023-03-23T17:22:38.818Z,47.54
2023-03-23T17:25:10.678Z,47.36
2023-03-23T17:27:43.000Z,47.06
2023-03-23T17:30:14.534Z,47.01
2023-03-23T17:32:44.717Z,47.09
2023-03-23T17:35:14.282Z,47.37
2023-03-23T17:37:45.270Z,47.83
2023-03-23T17:40:54.234Z,47.59
2023-03-23T17:43:24.170Z,47.61
2023-03-23T17:45:53.643Z,47.66
2023-03-23T17:48:23.412Z,47.66
2023-03-23T17:50:57.682Z,47.74
2023-03-23T17:53:26.803Z,48.01
2023-03-23T17:56:00.500Z,48.60
2023-03-23T17:58:29.769Z,48.20
2023-03-23T18:01:09.664Z,48.29
2023-03-23T18:03:44.734Z,48.22
2023-03-23T18:06:15.856Z,49.02
2023-03-23T18:08:47.995Z,49.16
2023-03-23T18:11:19.912Z,49.63
2023-03-23T18:13:49.718Z,49.40
2023-03-23T18:16:20.503Z,49.90
2023-03-23T18:18:51.313Z,49.20
2023-03-23T18:21:23.320Z,50.08
2023-03-23T18:23:59.195Z,50.30
2023-03-23T18:26:38.158Z,50.70
2023-03-23T18:29:07.711Z,50.96
2023-03-23T18:31:40.411Z,50.91
2023-03-23T18:34:10.616Z,51.91
2023-03-23T18:36:40.475Z,52.09
2023-03-23T18:39:12.268Z,52.44
2023-03-23T18:41:45.862Z,52.21
2023-03-23T18:44:15.496Z,52.12
2023-03-23T18:46:45.070Z,51.79
2023-03-23T18:49:16.278Z,54.16
2023-03-23T18:51:46.112Z,52.36
2023-03-23T18:54:18.583Z,51.60
2023-03-23T18:56:50.717Z,50.73
2023-03-23T18:59:27.609Z,51.24
2023-03-23T19:01:59.781Z,51.76
2023-03-23T19:04:31.935Z,51.25
2023-03-23T19:07:04.045Z,51.57
2023-03-23T19:09:43.233Z,51.01
2023-03-23T19:12:24.671Z,50.81
2023-03-23T19:14:54.755Z,50.67
2023-03-23T19:17:25.227Z,50.88
2023-03-23T19:19:54.921Z,50.70
2023-03-23T19:22:25.003Z,49.85
2023-03-23T19:24:54.330Z,50.30
2023-03-23T19:27:24.667Z,50.11
2023-03-23T19:29:54.068Z,50.14
2023-03-23T19:32:25.266Z,49.42
2023-03-23T19:34:55.076Z,50.12
2023-03-23T19:37:27.484Z,49.54
2023-03-23T19:39:56.957Z,49.63
2023-03-23T19:42:27.622Z,50.45
2023-03-23T19:45:00.240Z,49.33
2023-03-23T19:47:29.476Z,49.46
2023-03-23T19:49:59.975Z,49.82
2023-03-23T19:52:31.349Z,49.50
2023-03-23T19:55:01.300Z,49.43
2023-03-23T19:57:34.735Z,49.46
2023-03-23T20:00:07.592Z,48.99
2023-03-23T20:02:38.294Z,49.41
2023-03-23T20:05:08.853Z,49.41
2023-03-23T20:07:41.134Z,48.98
2023-03-23T20:10:11.671Z,48.91
2023-03-23T20:12:44.393Z,49.47
2023-03-23T20:15:13.992Z,49.14
2023-03-23T20:17:48.289Z,49.37
2023-03-23T20:20:18.462Z,49.40
2023-03-23T20:22:50.027Z,49.79
2023-03-23T20:25:21.577Z,50.13
2023-03-23T20:27:52.721Z,50.44
2023-03-23T20:30:23.995Z,50.25
2023-03-23T20:33:00.658Z,50.32
2023-03-23T20:35:31.987Z,50.81
2023-03-23T20:38:01.673Z,51.46
2023-03-23T20:40:31.145Z,51.81
2023-03-23T20:43:04.252Z,51.40
2023-03-23T20:45:39.097Z,51.47
2023-03-23T20:48:42.972Z,51.84
2023-03-23T20:51:12.998Z,52.38
2023-03-23T20:53:42.767Z,52.52
2023-03-23T20:56:16.393Z,53.44
2023-03-23T20:58:49.356Z,53.59
2023-03-23T21:01:18.994Z,53.57
2023-03-23T21:03:52.223Z,54.45
2023-03-23T21:06:23.642Z,53.96
2023-03-23T21:08:53.409Z,53.99
2023-03-23T21:11:45.154Z,54.23
2023-03-23T21:14:17.242Z,54.32
2023-03-23T21:16:46.744Z,54.30
2023-03-23T21:19:16.239Z,53.81
2023-03-23T21:21:56.684Z,54.10
2023-03-23T21:24:28.397Z,54.07
2023-03-23T21:26:59.320Z,54.22
2023-03-23T21:29:33.571Z,53.88
2023-03-23T21:32:08.296Z,54.04
2023-03-23T21:34:40.805Z,54.00
2023-03-23T21:37:12.617Z,53.98
2023-03-23T21:39:41.814Z,54.07
2023-03-23T21:42:13.723Z,53.56
2023-03-23T21:44:44.081Z,53.85
2023-03-23T21:47:16.225Z,54.00
2023-03-23T21:49:46.158Z,53.51
2023-03-23T21:52:15.526Z,53.65
2023-03-23T21:54:45.785Z,53.58
2023-03-23T21:57:14.728Z,54.45
2023-03-23T21:59:45.493Z,54.89
2023-03-23T22:02:15.884Z,54.51
2023-03-23T22:04:45.215Z,54.41
2023-03-23T22:07:14.488Z,54.16
2023-03-23T22:09:45.038Z,54.86
2023-03-23T22:12:14.661Z,54.81
2023-03-23T22:14:45.417Z,54.28
2023-03-23T22:17:20.251Z,53.77
2023-03-23T22:19:52.340Z,53.92
2023-03-23T22:22:21.767Z,53.85
2023-03-23T22:24:54.526Z,53.80
2023-03-23T22:27:27.170Z,53.68
2023-03-23T22:29:57.781Z,53.57
2023-03-23T22:32:27.304Z,53.81
2023-03-23T22:34:57.567Z,54.18
2023-03-23T22:37:40.054Z,54.01
2023-03-23T22:40:11.684Z,54.12
2023-03-23T22:42:43.103Z,54.66
2023-03-23T22:45:13.545Z,54.72
2023-03-23T22:47:42.822Z,54.61
2023-03-23T22:50:12.286Z,54.84
2023-03-23T22:52:41.429Z,55.18
2023-03-23T22:55:10.858Z,54.96
2023-03-23T22:57:39.959Z,55.76
2023-03-23T23:00:14.716Z,54.88
2023-03-23T23:02:49.955Z,55.45
2023-03-23T23:05:19.177Z,54.98
2023-03-23T23:07:48.204Z,55.11
2023-03-23T23:10:17.811Z,54.55
2023-03-23T23:12:47.795Z,55.08
2023-03-23T23:15:17.247Z,53.96
2023-03-23T23:17:48.102Z,54.05
2023-03-23T23:20:18.880Z,53.24
2023-03-23T23:22:47.993Z,53.20
2023-03-23T23:25:17.431Z,53.02
2023-03-23T23:27:46.694Z,52.73
2023-03-23T23:30:15.897Z,52.69
2023-03-23T23:32:45.207Z,52.54
2023-03-23T23:35:15.677Z,52.55
2023-03-23T23:37:44.695Z,52.60
2023-03-23T23:40:17.988Z,52.42
2023-03-23T23:42:48.903Z,51.94
2023-03-23T23:45:18.207Z,51.09
2023-03-23T23:47:48.053Z,51.31
2023-03-23T23:50:18.861Z,51.43
2023-03-23T23:52:50.350Z,51.41
2023-03-23T23:55:20.593Z,51.52
2023-03-23T23:57:52.694Z,51.65
